Ashton, South Dakota
Current Conditions -  °F | °C
As of 1:53 AM on Thursday 18 Dec 2014 (Local Time) from KABR Reporting Station
Overcast Overcast  
Wind Chill:   Ceiling: 10000
Heat Index: 17°   Visibility: 10mi
Dew Point: 12°   Wind: 7mph
Humidity: 81%   Direction: 150°SSE
Pressure: 30.24"   Gusts: NA
Location:  44.99°N, 98.5°W
Report Text: KABR 180753Z AUTO 15006KT 10SM OVC100 M08/M11 A3024 RMK AO2 SLP264 T10831111
Loading
Personal Weather Stations






























Interactive Weather Map New forecast layout! Learn more

10-Day Weather Forecast

Advertisements
Track Severe Weather on mobile